createdAt,value
2022-07-29T00:01:45.666Z,66.60
2022-07-29T00:04:15.386Z,66.50
2022-07-29T00:06:44.776Z,66.50
2022-07-29T00:09:14.036Z,66.60
2022-07-29T00:11:43.437Z,66.60
2022-07-29T00:14:14.385Z,66.60
2022-07-29T00:16:43.888Z,66.60
2022-07-29T00:19:13.150Z,66.50
2022-07-29T00:21:42.829Z,66.60
2022-07-29T00:24:12.296Z,66.50
2022-07-29T00:26:41.606Z,66.60
2022-07-29T00:29:33.702Z,66.60
2022-07-29T00:32:01.657Z,66.60
2022-07-29T00:34:48.626Z,66.60
2022-07-29T00:37:17.907Z,66.60
2022-07-29T00:39:47.058Z,66.60
2022-07-29T00:42:17.525Z,66.60
2022-07-29T00:44:46.784Z,66.50
2022-07-29T00:47:17.345Z,66.60
2022-07-29T00:49:46.744Z,66.60
2022-07-29T00:52:16.985Z,66.50
2022-07-29T00:54:46.363Z,66.50
2022-07-29T00:57:15.813Z,66.60
2022-07-29T00:59:44.964Z,66.60
2022-07-29T01:02:14.355Z,66.50
2022-07-29T01:04:45.068Z,66.50
2022-07-29T01:07:14.777Z,66.50
2022-07-29T01:09:45.912Z,66.50
2022-07-29T01:12:19.098Z,66.60
2022-07-29T01:14:50.025Z,66.50
2022-07-29T01:17:26.549Z,66.50
2022-07-29T01:20:04.151Z,66.50
2022-07-29T01:22:49.158Z,66.50
2022-07-29T01:25:36.910Z,66.40
2022-07-29T01:28:48.757Z,66.40
2022-07-29T01:31:25.215Z,66.30
2022-07-29T01:34:06.267Z,66.40
2022-07-29T01:36:39.400Z,66.40
2022-07-29T01:39:12.449Z,66.40
2022-07-29T01:41:50.412Z,67.10
2022-07-29T01:44:22.882Z,66.40
2022-07-29T01:46:58.205Z,66.40
2022-07-29T01:49:31.314Z,66.30
2022-07-29T01:52:04.020Z,66.40
2022-07-29T01:54:37.764Z,66.40
2022-07-29T01:57:09.445Z,66.30
2022-07-29T01:59:40.761Z,66.40
2022-07-29T02:02:16.098Z,66.30
2022-07-29T02:04:49.606Z,66.30
2022-07-29T02:07:22.284Z,66.30
2022-07-29T02:09:53.356Z,66.30
2022-07-29T02:12:24.420Z,66.30
2022-07-29T02:14:56.041Z,67.10
2022-07-29T02:17:31.387Z,66.30
2022-07-29T02:20:02.941Z,66.30
2022-07-29T02:22:35.813Z,66.20
2022-07-29T02:25:05.896Z,66.30
2022-07-29T02:27:44.613Z,66.30
2022-07-29T02:30:15.187Z,66.20
2022-07-29T02:32:47.572Z,66.20
2022-07-29T02:35:19.308Z,66.20
2022-07-29T02:38:10.316Z,66.30
2022-07-29T02:40:42.059Z,66.20
2022-07-29T02:43:12.429Z,66.20
2022-07-29T02:45:41.803Z,66.20
2022-07-29T02:48:17.663Z,66.30
2022-07-29T02:50:51.883Z,66.20
2022-07-29T02:53:25.440Z,66.20
2022-07-29T02:55:58.662Z,66.30
2022-07-29T02:58:31.229Z,66.20
2022-07-29T03:01:03.702Z,66.20
2022-07-29T03:03:38.847Z,66.10
2022-07-29T03:06:09.760Z,66.10
2022-07-29T03:08:59.015Z,66.20
2022-07-29T03:11:41.405Z,66.20
2022-07-29T03:14:21.405Z,66.00
2022-07-29T03:16:51.671Z,66.10
2022-07-29T03:19:22.852Z,66.10
2022-07-29T03:21:52.177Z,66.10
2022-07-29T03:24:28.536Z,66.10
2022-07-29T03:26:58.500Z,66.00
2022-07-29T03:29:33.831Z,66.00
2022-07-29T03:32:08.035Z,66.00
2022-07-29T03:34:40.217Z,66.10
2022-07-29T03:37:09.552Z,66.00
2022-07-29T03:39:43.748Z,66.00
2022-07-29T03:42:16.273Z,65.90
2022-07-29T03:44:50.005Z,66.00
2022-07-29T03:47:23.429Z,66.00
2022-07-29T03:50:16.842Z,65.90
2022-07-29T03:52:46.253Z,65.90
2022-07-29T03:55:15.970Z,65.90
2022-07-29T03:57:46.992Z,65.90
2022-07-29T04:00:17.701Z,65.90
2022-07-29T04:02:50.123Z,65.90
2022-07-29T04:05:21.372Z,65.90
2022-07-29T04:07:51.415Z,65.90
2022-07-29T04:10:30.537Z,65.80
2022-07-29T04:13:02.427Z,65.90
2022-07-29T04:15:32.037Z,65.80
2022-07-29T04:18:01.579Z,65.90
2022-07-29T04:20:32.301Z,65.80
2022-07-29T04:23:01.499Z,65.80
2022-07-29T04:25:30.610Z,65.90
2022-07-29T04:28:02.996Z,65.80
2022-07-29T04:30:32.807Z,65.80
2022-07-29T04:33:02.854Z,65.80
2022-07-29T04:35:38.446Z,65.80
2022-07-29T04:38:15.753Z,65.70
2022-07-29T04:40:47.123Z,65.80
2022-07-29T04:43:22.564Z,65.80
2022-07-29T04:45:52.558Z,65.70
2022-07-29T04:48:26.684Z,65.70
2022-07-29T04:50:59.508Z,65.80
2022-07-29T04:53:28.769Z,65.80
2022-07-29T04:55:57.909Z,65.70
2022-07-29T04:58:27.614Z,65.80
2022-07-29T05:00:56.903Z,65.80
2022-07-29T05:03:26.143Z,65.80
2022-07-29T05:05:55.285Z,65.80
2022-07-29T05:08:25.919Z,65.80
2022-07-29T05:10:55.288Z,65.80
2022-07-29T05:13:24.649Z,65.80
2022-07-29T05:15:53.886Z,65.80
2022-07-29T05:18:25.952Z,65.90
2022-07-29T05:20:55.435Z,65.90
2022-07-29T05:23:26.210Z,65.80
2022-07-29T05:25:55.376Z,65.90
2022-07-29T05:28:24.567Z,65.90
2022-07-29T05:30:53.831Z,65.90
2022-07-29T05:33:35.515Z,65.90
2022-07-29T05:36:08.293Z,65.90
2022-07-29T05:38:39.120Z,65.90
2022-07-29T05:41:08.482Z,65.90
2022-07-29T05:43:37.629Z,65.80
2022-07-29T05:46:06.990Z,66.00
2022-07-29T05:48:36.314Z,66.00
2022-07-29T05:51:06.085Z,66.00
2022-07-29T05:53:35.620Z,66.00
2022-07-29T05:56:08.387Z,65.90
2022-07-29T05:58:38.066Z,65.80
2022-07-29T06:01:07.349Z,65.90
2022-07-29T06:03:38.868Z,65.90
2022-07-29T06:06:08.401Z,65.90
2022-07-29T06:08:37.772Z,65.90
2022-07-29T06:11:09.603Z,66.00
2022-07-29T06:13:38.926Z,66.00
2022-07-29T06:16:08.378Z,66.00
2022-07-29T06:18:37.590Z,66.00
2022-07-29T06:21:11.013Z,66.00
2022-07-29T06:23:40.547Z,66.00
2022-07-29T06:26:11.162Z,66.80
2022-07-29T06:28:40.539Z,66.00
2022-07-29T06:31:10.296Z,65.90
2022-07-29T06:33:39.730Z,66.00
2022-07-29T06:36:09.464Z,66.00
2022-07-29T06:38:44.826Z,66.00
2022-07-29T06:41:20.408Z,66.00
2022-07-29T06:43:51.754Z,65.90
2022-07-29T06:46:23.366Z,66.00
2022-07-29T06:48:53.837Z,66.00
2022-07-29T06:51:24.070Z,65.90
2022-07-29T06:53:59.610Z,66.00
2022-07-29T06:56:38.634Z,66.00
2022-07-29T06:59:10.549Z,66.00
2022-07-29T07:01:41.443Z,66.00
2022-07-29T07:04:11.534Z,65.90
2022-07-29T07:06:40.966Z,66.00
2022-07-29T07:09:10.441Z,66.00
2022-07-29T07:11:41.172Z,66.00
2022-07-29T07:14:10.417Z,66.00
2022-07-29T07:16:39.645Z,65.90
2022-07-29T07:19:08.839Z,65.90
2022-07-29T07:21:38.079Z,65.90
2022-07-29T07:24:08.322Z,65.80
2022-07-29T07:26:37.495Z,65.80
2022-07-29T07:29:08.088Z,65.80
2022-07-29T07:31:39.070Z,65.90
2022-07-29T07:34:08.409Z,66.00
2022-07-29T07:36:37.617Z,65.90
2022-07-29T07:39:07.291Z,65.90
2022-07-29T07:41:36.539Z,66.00
2022-07-29T07:44:07.404Z,66.00
2022-07-29T07:46:36.624Z,65.90
2022-07-29T07:49:07.787Z,65.80
2022-07-29T07:51:37.106Z,65.80
2022-07-29T07:54:06.330Z,65.80
2022-07-29T07:56:36.363Z,65.80
2022-07-29T07:59:05.605Z,65.80
2022-07-29T08:01:48.167Z,65.90
2022-07-29T08:04:28.170Z,65.90
2022-07-29T08:06:59.003Z,65.90
2022-07-29T08:09:30.692Z,65.80
2022-07-29T08:12:00.437Z,65.90
2022-07-29T08:14:29.848Z,65.90
2022-07-29T08:17:00.512Z,65.80
2022-07-29T08:19:29.743Z,65.80
2022-07-29T08:21:59.110Z,65.80
2022-07-29T08:24:53.313Z,65.90
2022-07-29T08:27:43.128Z,65.80
2022-07-29T08:30:13.474Z,65.80
2022-07-29T08:32:53.696Z,65.80
2022-07-29T08:35:25.176Z,65.70
2022-07-29T08:37:55.169Z,65.90
2022-07-29T08:40:32.185Z,65.90
2022-07-29T08:43:06.498Z,65.80
2022-07-29T08:45:47.455Z,65.80
2022-07-29T08:48:21.169Z,65.80
2022-07-29T08:50:52.340Z,65.80
2022-07-29T08:53:23.361Z,65.90
2022-07-29T08:55:53.556Z,65.90
2022-07-29T08:58:24.917Z,65.90
2022-07-29T09:00:55.973Z,65.80
2022-07-29T09:03:29.785Z,65.80
2022-07-29T09:05:59.630Z,65.80
2022-07-29T09:08:29.285Z,65.90
2022-07-29T09:10:58.880Z,65.90
2022-07-29T09:13:28.928Z,66.00
2022-07-29T09:15:58.324Z,65.90
2022-07-29T09:18:39.233Z,66.00
2022-07-29T09:21:27.607Z,66.00
2022-07-29T09:24:04.606Z,66.00
2022-07-29T09:26:35.450Z,66.00
2022-07-29T09:29:12.197Z,66.00
2022-07-29T09:31:43.523Z,66.00
2022-07-29T09:34:16.069Z,66.20
2022-07-29T09:36:47.202Z,66.20
2022-07-29T09:39:18.450Z,66.20
2022-07-29T09:41:54.023Z,66.20
2022-07-29T09:44:24.077Z,66.20
2022-07-29T09:46:59.310Z,66.30
2022-07-29T09:49:30.007Z,66.40
2022-07-29T09:52:05.663Z,66.40
2022-07-29T09:54:39.184Z,66.50
2022-07-29T09:57:13.497Z,66.40
2022-07-29T10:00:01.622Z,66.50
2022-07-29T10:02:42.426Z,66.60
2022-07-29T10:05:22.604Z,66.60
2022-07-29T10:07:54.123Z,66.60
2022-07-29T10:10:25.431Z,66.70
2022-07-29T10:12:57.227Z,66.70
2022-07-29T10:15:28.319Z,66.70
2022-07-29T10:17:59.046Z,66.90
2022-07-29T10:20:30.290Z,66.90
2022-07-29T10:22:59.700Z,67.70
2022-07-29T10:25:29.699Z,66.90
2022-07-29T10:27:59.046Z,66.90
2022-07-29T10:30:28.826Z,67.00
2022-07-29T10:33:12.935Z,67.10
2022-07-29T10:36:04.603Z,67.20
2022-07-29T10:38:48.136Z,67.20
2022-07-29T10:41:44.686Z,67.90
2022-07-29T10:44:19.496Z,67.20
2022-07-29T10:46:52.650Z,67.20
2022-07-29T10:49:25.185Z,67.30
2022-07-29T10:52:05.830Z,67.30
2022-07-29T10:54:47.424Z,67.30
2022-07-29T10:57:20.773Z,67.40
2022-07-29T10:59:52.968Z,67.40
2022-07-29T11:02:45.933Z,67.50
2022-07-29T11:05:18.162Z,67.50
2022-07-29T11:08:28.111Z,67.60
2022-07-29T11:11:37.943Z,67.50
2022-07-29T11:14:10.153Z,67.60
2022-07-29T11:17:06.541Z,67.60
2022-07-29T11:19:40.254Z,67.60
2022-07-29T11:22:16.496Z,67.60
2022-07-29T11:24:50.057Z,67.60
2022-07-29T11:27:23.187Z,67.70
2022-07-29T11:29:54.796Z,67.70
2022-07-29T11:32:29.494Z,67.70
2022-07-29T11:35:37.131Z,67.60
2022-07-29T11:38:32.273Z,67.70
2022-07-29T11:41:27.548Z,67.70
2022-07-29T11:43:58.552Z,67.70
2022-07-29T11:46:50.107Z,67.80
2022-07-29T11:49:32.562Z,67.80
2022-07-29T11:52:04.141Z,67.80
2022-07-29T11:54:57.172Z,67.80
2022-07-29T11:57:36.041Z,67.70
2022-07-29T12:00:12.105Z,67.70
2022-07-29T12:02:48.019Z,67.70
2022-07-29T12:08:17.350Z,67.80
2022-07-29T12:10:47.215Z,67.70
2022-07-29T12:13:20.146Z,67.70
2022-07-29T12:15:55.851Z,67.70
2022-07-29T12:18:29.600Z,67.70
2022-07-29T12:21:04.940Z,67.70
2022-07-29T12:23:35.553Z,67.70
2022-07-29T12:26:11.097Z,67.80
2022-07-29T12:28:56.777Z,67.70
2022-07-29T12:31:43.192Z,67.80
2022-07-29T12:34:15.378Z,67.80
2022-07-29T12:36:45.439Z,67.70
2022-07-29T12:39:14.773Z,67.80
2022-07-29T12:41:44.493Z,67.80
2022-07-29T12:44:15.520Z,67.90
2022-07-29T12:46:47.673Z,67.80
2022-07-29T12:49:24.447Z,67.80
2022-07-29T12:51:53.769Z,67.90
2022-07-29T12:54:22.906Z,67.90
2022-07-29T12:57:02.079Z,67.80
2022-07-29T12:59:32.812Z,67.90
2022-07-29T13:02:03.461Z,67.90
2022-07-29T13:04:34.472Z,67.90
2022-07-29T13:07:07.402Z,67.90
2022-07-29T13:09:41.260Z,68.00
2022-07-29T13:12:13.039Z,68.10
2022-07-29T13:14:44.967Z,68.00
2022-07-29T13:17:16.857Z,68.10
2022-07-29T13:19:47.681Z,68.20
2022-07-29T13:22:18.319Z,68.10
2022-07-29T13:24:51.969Z,68.10
2022-07-29T13:27:23.566Z,68.30
2022-07-29T13:29:55.599Z,68.30
2022-07-29T13:32:28.467Z,68.20
2022-07-29T13:34:58.576Z,68.30
2022-07-29T13:37:30.844Z,68.30
2022-07-29T13:40:00.398Z,68.30
2022-07-29T13:42:29.903Z,68.30
2022-07-29T13:45:00.771Z,68.40
2022-07-29T13:47:32.408Z,68.40
2022-07-29T13:50:03.032Z,68.40
2022-07-29T13:52:32.305Z,68.50
2022-07-29T13:55:01.617Z,68.40
2022-07-29T13:57:31.063Z,68.50
2022-07-29T14:00:01.727Z,68.50
2022-07-29T14:02:39.183Z,68.50
2022-07-29T14:05:10.915Z,68.60
2022-07-29T14:07:41.068Z,68.50
2022-07-29T14:10:11.012Z,68.60
2022-07-29T14:12:43.147Z,68.60
2022-07-29T14:15:13.820Z,68.50
2022-07-29T14:17:43.112Z,68.40
2022-07-29T14:20:12.929Z,69.30
2022-07-29T14:22:42.343Z,68.70
2022-07-29T14:25:14.520Z,68.60
2022-07-29T14:27:44.960Z,68.60
2022-07-29T14:30:16.214Z,68.50
2022-07-29T14:32:46.495Z,68.70
2022-07-29T14:35:15.771Z,68.80
2022-07-29T14:37:44.988Z,68.60
2022-07-29T14:40:14.351Z,68.70
2022-07-29T14:42:43.659Z,68.90
2022-07-29T14:45:17.151Z,68.70
2022-07-29T14:47:46.440Z,68.70
2022-07-29T14:50:15.832Z,68.80
2022-07-29T14:52:45.207Z,68.80
2022-07-29T14:55:19.336Z,69.00
2022-07-29T14:57:51.046Z,68.80
2022-07-29T15:00:21.982Z,68.50
2022-07-29T15:03:06.530Z,68.90
2022-07-29T15:05:40.635Z,68.90
2022-07-29T15:08:10.400Z,68.90
2022-07-29T15:10:39.586Z,69.00
2022-07-29T15:13:08.821Z,68.90
2022-07-29T15:15:39.763Z,68.70
2022-07-29T15:18:10.205Z,68.90
2022-07-29T15:20:39.552Z,69.10
2022-07-29T15:23:10.612Z,68.90
2022-07-29T15:25:39.863Z,68.90
2022-07-29T15:28:09.168Z,68.90
2022-07-29T15:30:42.311Z,69.00
2022-07-29T15:33:12.047Z,68.90
2022-07-29T15:35:41.448Z,68.90
2022-07-29T15:38:10.970Z,69.00
2022-07-29T15:40:42.287Z,68.90
2022-07-29T15:43:12.035Z,69.00
2022-07-29T15:46:03.760Z,69.70
2022-07-29T15:48:33.718Z,69.00
2022-07-29T15:51:03.464Z,69.00
2022-07-29T15:53:33.080Z,69.00
2022-07-29T15:56:04.828Z,68.80
2022-07-29T15:58:34.040Z,68.90
2022-07-29T16:01:04.859Z,68.70
2022-07-29T16:03:34.642Z,69.00
2022-07-29T16:06:03.943Z,69.00
2022-07-29T16:08:33.172Z,68.80
2022-07-29T16:11:02.416Z,69.10
2022-07-29T16:13:31.827Z,68.80
2022-07-29T16:16:02.505Z,68.80
2022-07-29T16:18:37.237Z,68.80
2022-07-29T16:21:06.448Z,69.10
2022-07-29T16:23:35.669Z,68.90
2022-07-29T16:26:04.986Z,69.10
2022-07-29T16:28:34.216Z,69.20
2022-07-29T16:31:03.534Z,68.90
2022-07-29T16:33:54.799Z,69.00
2022-07-29T16:36:23.783Z,69.10
2022-07-29T16:38:53.308Z,69.10
2022-07-29T16:41:22.463Z,69.10
2022-07-29T16:43:51.692Z,69.10
2022-07-29T16:46:21.733Z,69.20
2022-07-29T16:48:53.649Z,68.90
2022-07-29T16:51:24.709Z,69.30
2022-07-29T16:53:53.862Z,69.10
2022-07-29T16:56:23.317Z,68.90
2022-07-29T16:58:52.510Z,69.10
2022-07-29T17:01:21.825Z,69.00
2022-07-29T17:04:09.420Z,69.90
2022-07-29T17:06:41.147Z,68.90
2022-07-29T17:09:11.873Z,68.80
2022-07-29T17:11:52.425Z,69.00
2022-07-29T17:14:25.883Z,69.00
2022-07-29T17:17:00.044Z,69.20
2022-07-29T17:19:34.197Z,69.30
2022-07-29T17:22:15.589Z,69.10
2022-07-29T17:24:48.378Z,69.90
2022-07-29T17:27:18.425Z,69.00
2022-07-29T17:29:47.981Z,69.00
2022-07-29T17:32:17.450Z,69.30
2022-07-29T17:34:46.621Z,69.20
2022-07-29T17:37:17.242Z,69.20
2022-07-29T17:39:46.692Z,69.10
2022-07-29T17:42:16.451Z,69.20
2022-07-29T17:44:45.984Z,69.20
2022-07-29T17:47:16.377Z,69.40
2022-07-29T17:49:46.157Z,69.20
2022-07-29T17:52:18.526Z,69.30
2022-07-29T17:54:49.490Z,69.30
2022-07-29T17:57:18.693Z,69.10
2022-07-29T17:59:47.876Z,69.10
2022-07-29T18:02:17.147Z,69.20
2022-07-29T18:04:46.324Z,69.20
2022-07-29T18:07:21.373Z,69.20
2022-07-29T18:09:50.585Z,69.20
2022-07-29T18:12:19.875Z,69.30
2022-07-29T18:14:49.084Z,69.30
2022-07-29T18:17:18.563Z,69.40
2022-07-29T18:19:48.407Z,69.40
2022-07-29T18:22:18.075Z,69.30
2022-07-29T18:24:48.682Z,69.40
2022-07-29T18:27:17.956Z,69.60
2022-07-29T18:29:47.242Z,69.60
2022-07-29T18:32:28.752Z,69.50
2022-07-29T18:35:02.722Z,69.50
2022-07-29T18:38:01.449Z,69.40
2022-07-29T18:40:23.970Z,69.60
2022-07-29T18:42:53.833Z,69.60
2022-07-29T18:45:23.047Z,69.60
2022-07-29T18:47:57.793Z,69.50
2022-07-29T18:50:29.604Z,69.50
2022-07-29T18:53:01.302Z,69.40
2022-07-29T18:55:31.962Z,69.40
2022-07-29T18:58:01.223Z,69.50
2022-07-29T19:00:30.676Z,69.60
2022-07-29T19:03:00.005Z,69.70
2022-07-29T19:05:29.607Z,69.50
2022-07-29T19:07:58.911Z,69.40
2022-07-29T19:10:28.640Z,69.60
2022-07-29T19:12:59.332Z,69.60
2022-07-29T19:15:28.819Z,69.60
2022-07-29T19:18:01.167Z,69.60
2022-07-29T19:20:30.781Z,69.60
2022-07-29T19:23:00.093Z,69.60
2022-07-29T19:25:29.235Z,69.60
2022-07-29T19:28:02.423Z,69.70
2022-07-29T19:30:31.582Z,69.60
2022-07-29T19:33:00.715Z,69.50
2022-07-29T19:35:31.627Z,69.50
2022-07-29T19:38:03.217Z,69.70
2022-07-29T19:40:32.481Z,69.60
2022-07-29T19:43:03.098Z,69.50
2022-07-29T19:45:52.350Z,69.70
2022-07-29T19:48:21.578Z,69.70
2022-07-29T19:50:50.820Z,69.60
2022-07-29T19:53:20.203Z,69.50
2022-07-29T19:55:49.421Z,69.60
2022-07-29T19:58:22.370Z,69.50
2022-07-29T20:00:55.105Z,69.50
2022-07-29T20:03:24.507Z,69.50
2022-07-29T20:05:53.881Z,69.60
2022-07-29T20:08:23.110Z,69.40
2022-07-29T20:10:52.320Z,69.60
2022-07-29T20:13:23.010Z,69.70
2022-07-29T20:15:52.226Z,69.50
2022-07-29T20:18:21.530Z,69.60
2022-07-29T20:20:50.780Z,69.50
2022-07-29T20:23:22.384Z,69.50
2022-07-29T20:25:51.872Z,69.50
2022-07-29T20:28:22.450Z,69.50
2022-07-29T20:30:51.707Z,69.60
2022-07-29T20:33:21.374Z,69.60
2022-07-29T20:35:50.761Z,69.60
2022-07-29T20:38:19.870Z,69.50
2022-07-29T20:40:49.847Z,69.40
2022-07-29T20:43:19.186Z,69.60
2022-07-29T20:45:50.243Z,69.60
2022-07-29T20:48:19.684Z,69.50
2022-07-29T20:50:48.997Z,69.70
2022-07-29T20:53:20.571Z,69.70
2022-07-29T20:55:49.775Z,69.60
2022-07-29T20:58:19.850Z,69.60
2022-07-29T21:00:50.680Z,69.60
2022-07-29T21:03:19.941Z,69.70
2022-07-29T21:05:49.160Z,69.60
2022-07-29T21:08:18.347Z,69.60
2022-07-29T21:10:47.558Z,69.60
2022-07-29T21:13:16.824Z,69.60
2022-07-29T21:15:49.331Z,69.60
2022-07-29T21:18:30.352Z,69.50
2022-07-29T21:21:02.382Z,69.50
2022-07-29T21:23:31.845Z,69.60
2022-07-29T21:26:01.150Z,69.60
2022-07-29T21:28:36.899Z,69.60
2022-07-29T21:31:09.202Z,69.50
2022-07-29T21:33:41.029Z,69.60
2022-07-29T21:36:46.078Z,69.50
2022-07-29T21:39:00.901Z,69.80
2022-07-29T21:41:30.121Z,69.60
2022-07-29T21:43:59.546Z,69.70
2022-07-29T21:46:30.815Z,69.60
2022-07-29T21:49:01.478Z,69.60
2022-07-29T21:51:30.803Z,69.70
2022-07-29T21:54:00.034Z,69.80
2022-07-29T21:56:30.733Z,69.70
2022-07-29T21:59:00.822Z,69.70
2022-07-29T22:01:39.104Z,69.70
2022-07-29T22:04:10.774Z,69.60
2022-07-29T22:06:39.991Z,69.70
2022-07-29T22:09:09.172Z,69.60
2022-07-29T22:11:38.433Z,69.60
2022-07-29T22:14:07.645Z,69.60
2022-07-29T22:16:37.018Z,69.60
2022-07-29T22:19:06.264Z,69.60
2022-07-29T22:21:37.009Z,69.60
2022-07-29T22:24:06.690Z,69.60
2022-07-29T22:26:39.899Z,69.60
2022-07-29T22:29:11.744Z,69.60
2022-07-29T22:31:41.081Z,69.60
2022-07-29T22:34:13.327Z,69.60
2022-07-29T22:36:44.028Z,69.60
2022-07-29T22:39:15.675Z,69.60
2022-07-29T22:41:45.624Z,69.60
2022-07-29T22:44:14.747Z,69.60
2022-07-29T22:46:44.096Z,69.60
2022-07-29T22:49:13.402Z,69.60
2022-07-29T22:51:44.030Z,69.50
2022-07-29T22:54:13.263Z,69.60
2022-07-29T22:56:42.664Z,69.60
2022-07-29T22:59:11.843Z,69.50
2022-07-29T23:01:41.053Z,69.60
2022-07-29T23:04:10.451Z,69.60
2022-07-29T23:06:39.782Z,69.60
2022-07-29T23:09:10.335Z,69.70
2022-07-29T23:11:39.706Z,69.60
2022-07-29T23:14:09.567Z,69.70
2022-07-29T23:16:38.935Z,69.70
2022-07-29T23:19:08.774Z,69.70
2022-07-29T23:21:38.104Z,69.60
2022-07-29T23:24:07.585Z,69.70
2022-07-29T23:26:38.250Z,69.60
2022-07-29T23:29:07.485Z,69.70
2022-07-29T23:31:36.726Z,69.70
2022-07-29T23:34:11.159Z,69.70
2022-07-29T23:36:42.419Z,69.80
2022-07-29T23:39:12.583Z,69.70
2022-07-29T23:41:43.790Z,69.80
2022-07-29T23:44:13.035Z,69.70
2022-07-29T23:46:42.346Z,69.80
2022-07-29T23:49:11.539Z,69.80
2022-07-29T23:51:40.817Z,69.70
2022-07-29T23:54:10.136Z,69.80
2022-07-29T23:56:39.492Z,69.90
2022-07-29T23:59:10.186Z,69.80
